sensor_id;sensor_type;location;lat;lon;timestamp;P1;durP1;ratioP1;P2;durP2;ratioP2
2940;SDS011;1480;51.456;6.670;2023-06-24T00:01:03;6.13;;;3.70;;
2940;SDS011;1480;51.456;6.670;2023-06-24T00:03:30;6.53;;;4.40;;
2940;SDS011;1480;51.456;6.670;2023-06-24T00:05:57;5.27;;;3.80;;
2940;SDS011;1480;51.456;6.670;2023-06-24T00:08:28;5.90;;;4.60;;
2940;SDS011;1480;51.456;6.670;2023-06-24T00:10:59;5.00;;;3.63;;
2940;SDS011;1480;51.456;6.670;2023-06-24T00:13:26;5.67;;;4.03;;
2940;SDS011;1480;51.456;6.670;2023-06-24T00:15:55;7.10;;;4.20;;
2940;SDS011;1480;51.456;6.670;2023-06-24T00:18:21;5.60;;;4.27;;
2940;SDS011;1480;51.456;6.670;2023-06-24T00:20:49;7.90;;;4.90;;
2940;SDS011;1480;51.456;6.670;2023-06-24T00:23:17;5.93;;;3.77;;
2940;SDS011;1480;51.456;6.670;2023-06-24T00:25:49;4.60;;;3.03;;
2940;SDS011;1480;51.456;6.670;2023-06-24T00:28:16;6.10;;;3.70;;
2940;SDS011;1480;51.456;6.670;2023-06-24T00:30:43;5.23;;;3.27;;
2940;SDS011;1480;51.456;6.670;2023-06-24T00:33:11;6.50;;;3.80;;
2940;SDS011;1480;51.456;6.670;2023-06-24T00:35:38;7.10;;;4.30;;
2940;SDS011;1480;51.456;6.670;2023-06-24T00:38:06;6.07;;;4.10;;
2940;SDS011;1480;51.456;6.670;2023-06-24T00:40:33;6.13;;;3.97;;
2940;SDS011;1480;51.456;6.670;2023-06-24T00:43:00;9.23;;;4.40;;
2940;SDS011;1480;51.456;6.670;2023-06-24T00:45:27;6.60;;;3.97;;
2940;SDS011;1480;51.456;6.670;2023-06-24T00:47:55;8.10;;;3.60;;
2940;SDS011;1480;51.456;6.670;2023-06-24T00:50:23;6.63;;;4.13;;
2940;SDS011;1480;51.456;6.670;2023-06-24T00:52:52;6.47;;;3.30;;
2940;SDS011;1480;51.456;6.670;2023-06-24T00:55:19;7.10;;;4.07;;
2940;SDS011;1480;51.456;6.670;2023-06-24T00:57:47;7.70;;;5.03;;
2940;SDS011;1480;51.456;6.670;2023-06-24T01:00:16;4.33;;;3.00;;
2940;SDS011;1480;51.456;6.670;2023-06-24T01:02:46;6.37;;;4.53;;
2940;SDS011;1480;51.456;6.670;2023-06-24T01:05:13;4.80;;;3.80;;
2940;SDS011;1480;51.456;6.670;2023-06-24T01:07:41;6.00;;;3.87;;
2940;SDS011;1480;51.456;6.670;2023-06-24T01:10:09;5.13;;;3.70;;
2940;SDS011;1480;51.456;6.670;2023-06-24T01:12:38;6.60;;;4.10;;
2940;SDS011;1480;51.456;6.670;2023-06-24T01:15:09;3.83;;;3.00;;
2940;SDS011;1480;51.456;6.670;2023-06-24T01:17:37;4.53;;;3.10;;
2940;SDS011;1480;51.456;6.670;2023-06-24T01:20:08;5.40;;;3.30;;
2940;SDS011;1480;51.456;6.670;2023-06-24T01:22:53;7.07;;;4.17;;
2940;SDS011;1480;51.456;6.670;2023-06-24T01:25:42;7.27;;;3.43;;
2940;SDS011;1480;51.456;6.670;2023-06-24T01:28:24;5.70;;;3.43;;
2940;SDS011;1480;51.456;6.670;2023-06-24T01:31:23;5.30;;;3.67;;
2940;SDS011;1480;51.456;6.670;2023-06-24T01:33:56;9.63;;;4.77;;
2940;SDS011;1480;51.456;6.670;2023-06-24T01:36:27;6.77;;;3.63;;
2940;SDS011;1480;51.456;6.670;2023-06-24T01:38:55;7.27;;;4.30;;
2940;SDS011;1480;51.456;6.670;2023-06-24T01:41:25;6.83;;;3.30;;
2940;SDS011;1480;51.456;6.670;2023-06-24T01:43:58;6.80;;;4.37;;
2940;SDS011;1480;51.456;6.670;2023-06-24T01:46:26;7.70;;;4.80;;
2940;SDS011;1480;51.456;6.670;2023-06-24T01:48:55;4.77;;;3.30;;
2940;SDS011;1480;51.456;6.670;2023-06-24T01:51:24;6.87;;;4.70;;
2940;SDS011;1480;51.456;6.670;2023-06-24T01:53:53;6.73;;;4.03;;
2940;SDS011;1480;51.456;6.670;2023-06-24T01:56:23;4.60;;;3.30;;
2940;SDS011;1480;51.456;6.670;2023-06-24T01:58:53;6.10;;;3.73;;
2940;SDS011;1480;51.456;6.670;2023-06-24T02:01:20;6.77;;;4.17;;
2940;SDS011;1480;51.456;6.670;2023-06-24T02:03:49;5.53;;;3.73;;
2940;SDS011;1480;51.456;6.670;2023-06-24T02:06:17;6.43;;;3.87;;
2940;SDS011;1480;51.456;6.670;2023-06-24T02:08:45;4.80;;;3.07;;
2940;SDS011;1480;51.456;6.670;2023-06-24T02:11:14;5.03;;;3.50;;
2940;SDS011;1480;51.456;6.670;2023-06-24T02:13:41;7.37;;;2.97;;
2940;SDS011;1480;51.456;6.670;2023-06-24T02:16:14;6.27;;;3.27;;
2940;SDS011;1480;51.456;6.670;2023-06-24T02:18:42;6.07;;;3.03;;
2940;SDS011;1480;51.456;6.670;2023-06-24T02:21:11;5.53;;;3.67;;
2940;SDS011;1480;51.456;6.670;2023-06-24T02:23:38;6.07;;;3.30;;
2940;SDS011;1480;51.456;6.670;2023-06-24T02:26:05;5.17;;;3.30;;
2940;SDS011;1480;51.456;6.670;2023-06-24T02:28:33;5.50;;;3.27;;
2940;SDS011;1480;51.456;6.670;2023-06-24T02:31:01;4.70;;;3.77;;
2940;SDS011;1480;51.456;6.670;2023-06-24T02:33:28;5.80;;;3.90;;
2940;SDS011;1480;51.456;6.670;2023-06-24T02:35:55;4.27;;;3.20;;
2940;SDS011;1480;51.456;6.670;2023-06-24T02:38:23;17.53;;;4.30;;
2940;SDS011;1480;51.456;6.670;2023-06-24T02:40:49;7.10;;;3.90;;
2940;SDS011;1480;51.456;6.670;2023-06-24T02:43:17;6.30;;;3.17;;
2940;SDS011;1480;51.456;6.670;2023-06-24T02:45:44;5.90;;;3.63;;
2940;SDS011;1480;51.456;6.670;2023-06-24T02:48:11;6.90;;;3.90;;
2940;SDS011;1480;51.456;6.670;2023-06-24T02:50:39;6.40;;;3.70;;
2940;SDS011;1480;51.456;6.670;2023-06-24T02:53:09;6.70;;;3.33;;
2940;SDS011;1480;51.456;6.670;2023-06-24T02:55:38;7.83;;;3.90;;
2940;SDS011;1480;51.456;6.670;2023-06-24T02:58:06;6.50;;;3.20;;
2940;SDS011;1480;51.456;6.670;2023-06-24T03:00:40;6.47;;;3.10;;
2940;SDS011;1480;51.456;6.670;2023-06-24T03:03:07;4.07;;;3.03;;
2940;SDS011;1480;51.456;6.670;2023-06-24T03:05:38;5.10;;;3.13;;
2940;SDS011;1480;51.456;6.670;2023-06-24T03:08:05;5.63;;;3.47;;
2940;SDS011;1480;51.456;6.670;2023-06-24T03:10:35;6.83;;;3.10;;
2940;SDS011;1480;51.456;6.670;2023-06-24T03:13:06;6.73;;;4.20;;
2940;SDS011;1480;51.456;6.670;2023-06-24T03:15:41;4.20;;;3.37;;
2940;SDS011;1480;51.456;6.670;2023-06-24T03:18:08;5.83;;;3.30;;
2940;SDS011;1480;51.456;6.670;2023-06-24T03:20:35;4.90;;;3.03;;
2940;SDS011;1480;51.456;6.670;2023-06-24T03:23:06;7.33;;;4.07;;
2940;SDS011;1480;51.456;6.670;2023-06-24T03:25:34;5.90;;;3.33;;
2940;SDS011;1480;51.456;6.670;2023-06-24T03:28:03;4.60;;;3.13;;
2940;SDS011;1480;51.456;6.670;2023-06-24T03:30:34;4.40;;;3.30;;
2940;SDS011;1480;51.456;6.670;2023-06-24T03:33:01;6.03;;;3.30;;
2940;SDS011;1480;51.456;6.670;2023-06-24T03:35:28;7.03;;;4.30;;
2940;SDS011;1480;51.456;6.670;2023-06-24T03:37:58;5.30;;;3.30;;
2940;SDS011;1480;51.456;6.670;2023-06-24T03:40:25;4.70;;;3.40;;
2940;SDS011;1480;51.456;6.670;2023-06-24T03:42:52;6.47;;;3.60;;
2940;SDS011;1480;51.456;6.670;2023-06-24T03:45:20;5.13;;;3.70;;
2940;SDS011;1480;51.456;6.670;2023-06-24T03:47:46;5.10;;;3.30;;
2940;SDS011;1480;51.456;6.670;2023-06-24T03:50:13;6.33;;;4.03;;
2940;SDS011;1480;51.456;6.670;2023-06-24T03:52:40;6.97;;;3.83;;
2940;SDS011;1480;51.456;6.670;2023-06-24T03:55:07;8.73;;;3.67;;
2940;SDS011;1480;51.456;6.670;2023-06-24T03:57:34;9.67;;;4.20;;
2940;SDS011;1480;51.456;6.670;2023-06-24T04:00:00;5.33;;;3.73;;
2940;SDS011;1480;51.456;6.670;2023-06-24T04:02:39;6.03;;;3.53;;
2940;SDS011;1480;51.456;6.670;2023-06-24T04:05:07;5.70;;;3.83;;
2940;SDS011;1480;51.456;6.670;2023-06-24T04:07:34;5.13;;;2.90;;
2940;SDS011;1480;51.456;6.670;2023-06-24T04:10:01;7.23;;;4.13;;
2940;SDS011;1480;51.456;6.670;2023-06-24T04:12:33;6.33;;;4.20;;
2940;SDS011;1480;51.456;6.670;2023-06-24T04:15:01;11.30;;;4.37;;
2940;SDS011;1480;51.456;6.670;2023-06-24T04:17:31;8.50;;;4.10;;
2940;SDS011;1480;51.456;6.670;2023-06-24T04:20:00;5.87;;;3.70;;
2940;SDS011;1480;51.456;6.670;2023-06-24T04:22:27;6.33;;;4.53;;
2940;SDS011;1480;51.456;6.670;2023-06-24T04:24:57;5.10;;;3.77;;
2940;SDS011;1480;51.456;6.670;2023-06-24T04:27:23;6.33;;;3.87;;
2940;SDS011;1480;51.456;6.670;2023-06-24T04:29:50;7.73;;;4.53;;
2940;SDS011;1480;51.456;6.670;2023-06-24T04:32:17;6.63;;;4.80;;
2940;SDS011;1480;51.456;6.670;2023-06-24T04:34:44;4.67;;;3.50;;
2940;SDS011;1480;51.456;6.670;2023-06-24T04:37:12;6.50;;;3.80;;
2940;SDS011;1480;51.456;6.670;2023-06-24T04:39:39;8.03;;;5.47;;
2940;SDS011;1480;51.456;6.670;2023-06-24T04:42:06;7.70;;;4.67;;
2940;SDS011;1480;51.456;6.670;2023-06-24T04:44:33;6.80;;;4.50;;
2940;SDS011;1480;51.456;6.670;2023-06-24T04:46:59;7.17;;;5.17;;
2940;SDS011;1480;51.456;6.670;2023-06-24T04:49:26;8.80;;;5.10;;
2940;SDS011;1480;51.456;6.670;2023-06-24T04:51:53;7.00;;;4.80;;
2940;SDS011;1480;51.456;6.670;2023-06-24T04:54:21;8.60;;;5.30;;
2940;SDS011;1480;51.456;6.670;2023-06-24T04:56:47;7.97;;;4.90;;
2940;SDS011;1480;51.456;6.670;2023-06-24T04:59:15;10.63;;;5.07;;
2940;SDS011;1480;51.456;6.670;2023-06-24T05:01:42;9.00;;;6.00;;
2940;SDS011;1480;51.456;6.670;2023-06-24T05:04:09;7.57;;;6.07;;
2940;SDS011;1480;51.456;6.670;2023-06-24T05:06:35;11.67;;;6.00;;
2940;SDS011;1480;51.456;6.670;2023-06-24T05:09:02;6.93;;;5.20;;
2940;SDS011;1480;51.456;6.670;2023-06-24T05:11:30;11.33;;;6.10;;
2940;SDS011;1480;51.456;6.670;2023-06-24T05:13:57;7.80;;;5.40;;
2940;SDS011;1480;51.456;6.670;2023-06-24T05:16:23;8.33;;;5.53;;
2940;SDS011;1480;51.456;6.670;2023-06-24T05:18:50;11.50;;;6.40;;
2940;SDS011;1480;51.456;6.670;2023-06-24T05:21:17;8.17;;;5.47;;
2940;SDS011;1480;51.456;6.670;2023-06-24T05:23:43;7.47;;;5.60;;
2940;SDS011;1480;51.456;6.670;2023-06-24T05:26:10;9.60;;;5.97;;
2940;SDS011;1480;51.456;6.670;2023-06-24T05:28:38;7.77;;;5.17;;
2940;SDS011;1480;51.456;6.670;2023-06-24T05:31:05;7.27;;;4.87;;
2940;SDS011;1480;51.456;6.670;2023-06-24T05:33:31;7.77;;;4.90;;
2940;SDS011;1480;51.456;6.670;2023-06-24T05:35:58;6.87;;;4.90;;
2940;SDS011;1480;51.456;6.670;2023-06-24T05:38:25;7.67;;;6.20;;
2940;SDS011;1480;51.456;6.670;2023-06-24T05:40:51;9.47;;;4.97;;
2940;SDS011;1480;51.456;6.670;2023-06-24T05:43:18;7.67;;;5.83;;
2940;SDS011;1480;51.456;6.670;2023-06-24T05:45:46;8.33;;;5.00;;
2940;SDS011;1480;51.456;6.670;2023-06-24T05:48:13;7.70;;;6.43;;
2940;SDS011;1480;51.456;6.670;2023-06-24T05:50:40;11.20;;;6.20;;
2940;SDS011;1480;51.456;6.670;2023-06-24T05:53:06;9.30;;;5.83;;
2940;SDS011;1480;51.456;6.670;2023-06-24T05:55:33;10.07;;;6.97;;
2940;SDS011;1480;51.456;6.670;2023-06-24T05:58:00;7.33;;;5.60;;
2940;SDS011;1480;51.456;6.670;2023-06-24T06:00:26;8.70;;;5.97;;
2940;SDS011;1480;51.456;6.670;2023-06-24T06:02:54;8.63;;;6.33;;
2940;SDS011;1480;51.456;6.670;2023-06-24T06:05:21;12.40;;;6.70;;
2940;SDS011;1480;51.456;6.670;2023-06-24T06:07:48;13.50;;;7.30;;
2940;SDS011;1480;51.456;6.670;2023-06-24T06:10:14;18.20;;;8.00;;
2940;SDS011;1480;51.456;6.670;2023-06-24T06:12:42;11.00;;;7.87;;
2940;SDS011;1480;51.456;6.670;2023-06-24T06:15:09;10.63;;;6.90;;
2940;SDS011;1480;51.456;6.670;2023-06-24T06:17:36;8.63;;;7.13;;
2940;SDS011;1480;51.456;6.670;2023-06-24T06:20:05;9.50;;;6.07;;
2940;SDS011;1480;51.456;6.670;2023-06-24T06:22:33;8.80;;;5.43;;
2940;SDS011;1480;51.456;6.670;2023-06-24T06:25:03;8.27;;;6.70;;
2940;SDS011;1480;51.456;6.670;2023-06-24T06:27:30;9.63;;;6.40;;
2940;SDS011;1480;51.456;6.670;2023-06-24T06:29:57;8.80;;;5.70;;
2940;SDS011;1480;51.456;6.670;2023-06-24T06:32:24;8.27;;;5.97;;
2940;SDS011;1480;51.456;6.670;2023-06-24T06:34:50;13.07;;;6.67;;
2940;SDS011;1480;51.456;6.670;2023-06-24T06:37:18;9.40;;;6.70;;
2940;SDS011;1480;51.456;6.670;2023-06-24T06:39:45;14.00;;;6.97;;
2940;SDS011;1480;51.456;6.670;2023-06-24T06:42:12;9.97;;;7.60;;
2940;SDS011;1480;51.456;6.670;2023-06-24T06:44:39;9.00;;;7.67;;
2940;SDS011;1480;51.456;6.670;2023-06-24T06:47:06;13.27;;;7.17;;
2940;SDS011;1480;51.456;6.670;2023-06-24T06:49:33;6.57;;;5.30;;
2940;SDS011;1480;51.456;6.670;2023-06-24T06:52:00;9.83;;;7.80;;
2940;SDS011;1480;51.456;6.670;2023-06-24T06:54:28;13.90;;;8.37;;
2940;SDS011;1480;51.456;6.670;2023-06-24T06:56:54;12.93;;;8.10;;
2940;SDS011;1480;51.456;6.670;2023-06-24T06:59:21;13.10;;;7.20;;
2940;SDS011;1480;51.456;6.670;2023-06-24T07:01:48;12.10;;;8.37;;
2940;SDS011;1480;51.456;6.670;2023-06-24T07:04:15;10.20;;;8.07;;
2940;SDS011;1480;51.456;6.670;2023-06-24T07:06:41;11.40;;;8.57;;
2940;SDS011;1480;51.456;6.670;2023-06-24T07:09:08;12.77;;;9.10;;
2940;SDS011;1480;51.456;6.670;2023-06-24T07:11:36;8.03;;;6.03;;
2940;SDS011;1480;51.456;6.670;2023-06-24T07:14:03;9.30;;;7.20;;
2940;SDS011;1480;51.456;6.670;2023-06-24T07:16:29;10.20;;;7.40;;
2940;SDS011;1480;51.456;6.670;2023-06-24T07:18:56;6.63;;;5.30;;
2940;SDS011;1480;51.456;6.670;2023-06-24T07:21:23;9.00;;;6.90;;
2940;SDS011;1480;51.456;6.670;2023-06-24T07:23:49;12.97;;;8.03;;
2940;SDS011;1480;51.456;6.670;2023-06-24T07:26:16;11.27;;;6.30;;
2940;SDS011;1480;51.456;6.670;2023-06-24T07:28:44;10.87;;;8.40;;
2940;SDS011;1480;51.456;6.670;2023-06-24T07:31:11;12.77;;;6.10;;
2940;SDS011;1480;51.456;6.670;2023-06-24T07:33:37;10.23;;;6.10;;
2940;SDS011;1480;51.456;6.670;2023-06-24T07:36:04;7.93;;;5.57;;
2940;SDS011;1480;51.456;6.670;2023-06-24T07:38:31;7.70;;;6.07;;
2940;SDS011;1480;51.456;6.670;2023-06-24T07:40:58;9.97;;;6.27;;
2940;SDS011;1480;51.456;6.670;2023-06-24T07:43:25;5.77;;;4.50;;
2940;SDS011;1480;51.456;6.670;2023-06-24T07:45:53;7.20;;;4.27;;
2940;SDS011;1480;51.456;6.670;2023-06-24T07:48:19;6.10;;;4.57;;
2940;SDS011;1480;51.456;6.670;2023-06-24T07:50:46;8.27;;;4.27;;
2940;SDS011;1480;51.456;6.670;2023-06-24T07:53:13;7.40;;;4.20;;
2940;SDS011;1480;51.456;6.670;2023-06-24T07:55:39;5.43;;;3.87;;
2940;SDS011;1480;51.456;6.670;2023-06-24T07:58:06;5.07;;;3.63;;
2940;SDS011;1480;51.456;6.670;2023-06-24T08:00:33;6.10;;;4.10;;
2940;SDS011;1480;51.456;6.670;2023-06-24T08:03:01;7.97;;;5.17;;
2940;SDS011;1480;51.456;6.670;2023-06-24T08:05:27;8.20;;;4.83;;
2940;SDS011;1480;51.456;6.670;2023-06-24T08:07:54;5.77;;;4.30;;
2940;SDS011;1480;51.456;6.670;2023-06-24T08:10:21;6.33;;;4.10;;
2940;SDS011;1480;51.456;6.670;2023-06-24T08:12:48;5.93;;;3.70;;
2940;SDS011;1480;51.456;6.670;2023-06-24T08:15:15;6.20;;;3.87;;
2940;SDS011;1480;51.456;6.670;2023-06-24T08:17:41;6.80;;;3.30;;
2940;SDS011;1480;51.456;6.670;2023-06-24T08:20:10;9.30;;;3.17;;
2940;SDS011;1480;51.456;6.670;2023-06-24T08:22:37;5.00;;;2.80;;
2940;SDS011;1480;51.456;6.670;2023-06-24T08:25:04;4.10;;;2.70;;
2940;SDS011;1480;51.456;6.670;2023-06-24T08:27:32;6.53;;;2.47;;
2940;SDS011;1480;51.456;6.670;2023-06-24T08:29:58;7.27;;;3.27;;
2940;SDS011;1480;51.456;6.670;2023-06-24T08:32:25;6.43;;;3.83;;
2940;SDS011;1480;51.456;6.670;2023-06-24T08:34:52;5.37;;;3.47;;
2940;SDS011;1480;51.456;6.670;2023-06-24T08:37:20;6.77;;;3.63;;
2940;SDS011;1480;51.456;6.670;2023-06-24T08:39:46;5.47;;;2.90;;
2940;SDS011;1480;51.456;6.670;2023-06-24T08:42:13;5.00;;;3.30;;
2940;SDS011;1480;51.456;6.670;2023-06-24T08:44:40;6.33;;;3.77;;
2940;SDS011;1480;51.456;6.670;2023-06-24T08:47:07;6.60;;;4.20;;
2940;SDS011;1480;51.456;6.670;2023-06-24T08:49:34;6.40;;;3.80;;
2940;SDS011;1480;51.456;6.670;2023-06-24T08:52:07;6.77;;;4.70;;
2940;SDS011;1480;51.456;6.670;2023-06-24T08:54:36;7.07;;;4.10;;
2940;SDS011;1480;51.456;6.670;2023-06-24T08:57:05;6.57;;;3.10;;
2940;SDS011;1480;51.456;6.670;2023-06-24T08:59:33;7.03;;;3.43;;
2940;SDS011;1480;51.456;6.670;2023-06-24T09:02:00;6.57;;;3.77;;
2940;SDS011;1480;51.456;6.670;2023-06-24T09:04:27;6.17;;;4.07;;
2940;SDS011;1480;51.456;6.670;2023-06-24T09:06:54;6.47;;;3.40;;
2940;SDS011;1480;51.456;6.670;2023-06-24T09:09:21;4.27;;;2.70;;
2940;SDS011;1480;51.456;6.670;2023-06-24T09:11:53;6.03;;;3.07;;
2940;SDS011;1480;51.456;6.670;2023-06-24T09:14:21;5.10;;;2.93;;
2940;SDS011;1480;51.456;6.670;2023-06-24T09:16:51;4.83;;;3.20;;
2940;SDS011;1480;51.456;6.670;2023-06-24T09:19:21;5.67;;;3.50;;
2940;SDS011;1480;51.456;6.670;2023-06-24T09:21:48;4.60;;;2.97;;
2940;SDS011;1480;51.456;6.670;2023-06-24T09:24:16;4.93;;;2.67;;
2940;SDS011;1480;51.456;6.670;2023-06-24T09:26:43;6.87;;;3.47;;
2940;SDS011;1480;51.456;6.670;2023-06-24T09:29:12;3.83;;;2.90;;
2940;SDS011;1480;51.456;6.670;2023-06-24T09:31:47;6.90;;;3.37;;
2940;SDS011;1480;51.456;6.670;2023-06-24T09:34:14;3.60;;;2.77;;
2940;SDS011;1480;51.456;6.670;2023-06-24T09:36:42;4.03;;;2.60;;
2940;SDS011;1480;51.456;6.670;2023-06-24T09:39:10;4.20;;;2.30;;
2940;SDS011;1480;51.456;6.670;2023-06-24T09:41:39;4.50;;;2.83;;
2940;SDS011;1480;51.456;6.670;2023-06-24T09:44:07;5.80;;;2.70;;
2940;SDS011;1480;51.456;6.670;2023-06-24T09:46:36;4.37;;;2.30;;
2940;SDS011;1480;51.456;6.670;2023-06-24T09:49:03;4.33;;;2.70;;
2940;SDS011;1480;51.456;6.670;2023-06-24T09:51:30;5.13;;;1.50;;
2940;SDS011;1480;51.456;6.670;2023-06-24T09:53:58;3.97;;;2.20;;
2940;SDS011;1480;51.456;6.670;2023-06-24T09:56:25;3.00;;;2.13;;
2940;SDS011;1480;51.456;6.670;2023-06-24T09:58:52;3.03;;;2.03;;
2940;SDS011;1480;51.456;6.670;2023-06-24T10:01:18;3.83;;;2.67;;
2940;SDS011;1480;51.456;6.670;2023-06-24T10:03:47;5.20;;;2.33;;
2940;SDS011;1480;51.456;6.670;2023-06-24T10:06:13;7.43;;;1.90;;
2940;SDS011;1480;51.456;6.670;2023-06-24T10:08:40;4.60;;;2.67;;
2940;SDS011;1480;51.456;6.670;2023-06-24T10:11:07;5.00;;;3.03;;
2940;SDS011;1480;51.456;6.670;2023-06-24T10:13:34;3.20;;;2.40;;
2940;SDS011;1480;51.456;6.670;2023-06-24T10:16:00;3.50;;;2.40;;
2940;SDS011;1480;51.456;6.670;2023-06-24T10:18:33;6.07;;;2.07;;
2940;SDS011;1480;51.456;6.670;2023-06-24T10:21:02;2.67;;;1.83;;
2940;SDS011;1480;51.456;6.670;2023-06-24T10:23:39;3.00;;;2.30;;
2940;SDS011;1480;51.456;6.670;2023-06-24T10:26:10;2.90;;;1.90;;
2940;SDS011;1480;51.456;6.670;2023-06-24T10:34:20;3.63;;;2.47;;
2940;SDS011;1480;51.456;6.670;2023-06-24T10:36:54;3.30;;;1.93;;
2940;SDS011;1480;51.456;6.670;2023-06-24T10:39:34;5.00;;;1.80;;
2940;SDS011;1480;51.456;6.670;2023-06-24T10:44:57;2.53;;;1.60;;
2940;SDS011;1480;51.456;6.670;2023-06-24T10:47:24;3.43;;;2.07;;
2940;SDS011;1480;51.456;6.670;2023-06-24T10:49:52;4.97;;;2.00;;
2940;SDS011;1480;51.456;6.670;2023-06-24T10:52:20;2.60;;;1.80;;
2940;SDS011;1480;51.456;6.670;2023-06-24T10:54:48;5.00;;;2.23;;
2940;SDS011;1480;51.456;6.670;2023-06-24T10:57:15;2.63;;;1.97;;
2940;SDS011;1480;51.456;6.670;2023-06-24T10:59:47;3.03;;;1.60;;
2940;SDS011;1480;51.456;6.670;2023-06-24T11:02:14;2.87;;;1.67;;
2940;SDS011;1480;51.456;6.670;2023-06-24T11:04:42;2.30;;;1.50;;
2940;SDS011;1480;51.456;6.670;2023-06-24T11:07:09;3.57;;;2.13;;
2940;SDS011;1480;51.456;6.670;2023-06-24T11:09:38;6.40;;;2.07;;
2940;SDS011;1480;51.456;6.670;2023-06-24T11:12:05;3.90;;;2.10;;
2940;SDS011;1480;51.456;6.670;2023-06-24T11:14:32;2.27;;;1.53;;
2940;SDS011;1480;51.456;6.670;2023-06-24T11:17:00;3.67;;;1.73;;
2940;SDS011;1480;51.456;6.670;2023-06-24T11:19:29;3.03;;;1.70;;
2940;SDS011;1480;51.456;6.670;2023-06-24T11:21:58;3.00;;;1.83;;
2940;SDS011;1480;51.456;6.670;2023-06-24T11:24:25;2.70;;;1.77;;
2940;SDS011;1480;51.456;6.670;2023-06-24T11:26:53;4.50;;;1.83;;
2940;SDS011;1480;51.456;6.670;2023-06-24T11:29:20;2.87;;;1.57;;
2940;SDS011;1480;51.456;6.670;2023-06-24T11:31:47;2.83;;;1.40;;
2940;SDS011;1480;51.456;6.670;2023-06-24T11:34:14;3.77;;;1.37;;
2940;SDS011;1480;51.456;6.670;2023-06-24T11:36:41;4.30;;;1.70;;
2940;SDS011;1480;51.456;6.670;2023-06-24T11:39:07;3.13;;;2.10;;
2940;SDS011;1480;51.456;6.670;2023-06-24T11:41:36;2.93;;;1.63;;
2940;SDS011;1480;51.456;6.670;2023-06-24T11:44:05;3.90;;;1.63;;
2940;SDS011;1480;51.456;6.670;2023-06-24T11:46:32;3.17;;;1.47;;
2940;SDS011;1480;51.456;6.670;2023-06-24T11:49:03;3.97;;;1.63;;
2940;SDS011;1480;51.456;6.670;2023-06-24T11:51:30;8.53;;;1.67;;
2940;SDS011;1480;51.456;6.670;2023-06-24T11:53:58;2.30;;;1.47;;
2940;SDS011;1480;51.456;6.670;2023-06-24T11:56:33;3.80;;;1.50;;
2940;SDS011;1480;51.456;6.670;2023-06-24T11:59:00;2.00;;;1.27;;
2940;SDS011;1480;51.456;6.670;2023-06-24T12:01:31;3.00;;;1.83;;
2940;SDS011;1480;51.456;6.670;2023-06-24T12:03:59;2.53;;;1.43;;
2940;SDS011;1480;51.456;6.670;2023-06-24T12:06:26;3.30;;;1.87;;
2940;SDS011;1480;51.456;6.670;2023-06-24T12:08:52;3.40;;;2.00;;
2940;SDS011;1480;51.456;6.670;2023-06-24T12:11:19;2.53;;;1.67;;
2940;SDS011;1480;51.456;6.670;2023-06-24T12:13:46;3.57;;;1.80;;
2940;SDS011;1480;51.456;6.670;2023-06-24T12:16:13;3.20;;;1.73;;
2940;SDS011;1480;51.456;6.670;2023-06-24T12:18:41;2.63;;;1.53;;
2940;SDS011;1480;51.456;6.670;2023-06-24T12:21:07;5.37;;;1.93;;
2940;SDS011;1480;51.456;6.670;2023-06-24T12:23:34;3.90;;;2.30;;
2940;SDS011;1480;51.456;6.670;2023-06-24T12:26:01;2.50;;;1.57;;
2940;SDS011;1480;51.456;6.670;2023-06-24T12:28:27;3.43;;;1.90;;
2940;SDS011;1480;51.456;6.670;2023-06-24T12:30:54;4.70;;;2.13;;
2940;SDS011;1480;51.456;6.670;2023-06-24T12:33:21;2.90;;;1.60;;
2940;SDS011;1480;51.456;6.670;2023-06-24T12:35:49;3.10;;;1.50;;
2940;SDS011;1480;51.456;6.670;2023-06-24T12:38:16;3.20;;;1.73;;
2940;SDS011;1480;51.456;6.670;2023-06-24T12:40:43;3.03;;;1.90;;
2940;SDS011;1480;51.456;6.670;2023-06-24T12:43:11;2.87;;;2.00;;
2940;SDS011;1480;51.456;6.670;2023-06-24T12:45:38;2.53;;;1.10;;
2940;SDS011;1480;51.456;6.670;2023-06-24T12:48:05;3.47;;;1.40;;
2940;SDS011;1480;51.456;6.670;2023-06-24T12:50:32;2.43;;;1.40;;
2940;SDS011;1480;51.456;6.670;2023-06-24T12:53:00;3.37;;;1.37;;
2940;SDS011;1480;51.456;6.670;2023-06-24T12:55:28;2.53;;;1.20;;
2940;SDS011;1480;51.456;6.670;2023-06-24T12:57:55;3.17;;;1.57;;
2940;SDS011;1480;51.456;6.670;2023-06-24T13:00:21;3.87;;;1.20;;
2940;SDS011;1480;51.456;6.670;2023-06-24T13:02:48;1.80;;;1.23;;
2940;SDS011;1480;51.456;6.670;2023-06-24T13:05:16;2.23;;;1.33;;
2940;SDS011;1480;51.456;6.670;2023-06-24T13:07:42;2.70;;;1.37;;
2940;SDS011;1480;51.456;6.670;2023-06-24T13:10:11;2.00;;;1.30;;
2940;SDS011;1480;51.456;6.670;2023-06-24T13:12:37;3.23;;;1.93;;
2940;SDS011;1480;51.456;6.670;2023-06-24T13:15:05;3.50;;;1.60;;
2940;SDS011;1480;51.456;6.670;2023-06-24T13:17:34;2.30;;;1.30;;
2940;SDS011;1480;51.456;6.670;2023-06-24T13:20:01;3.23;;;1.40;;
2940;SDS011;1480;51.456;6.670;2023-06-24T13:22:29;2.10;;;1.33;;
2940;SDS011;1480;51.456;6.670;2023-06-24T13:24:56;3.80;;;1.40;;
2940;SDS011;1480;51.456;6.670;2023-06-24T13:27:24;4.90;;;1.50;;
2940;SDS011;1480;51.456;6.670;2023-06-24T13:29:51;2.80;;;1.43;;
2940;SDS011;1480;51.456;6.670;2023-06-24T13:32:17;2.77;;;1.70;;
2940;SDS011;1480;51.456;6.670;2023-06-24T13:34:45;3.83;;;2.00;;
2940;SDS011;1480;51.456;6.670;2023-06-24T13:37:11;3.00;;;1.97;;
2940;SDS011;1480;51.456;6.670;2023-06-24T13:39:38;2.37;;;1.30;;
2940;SDS011;1480;51.456;6.670;2023-06-24T13:42:05;2.17;;;1.40;;
2940;SDS011;1480;51.456;6.670;2023-06-24T13:44:33;2.47;;;1.50;;
2940;SDS011;1480;51.456;6.670;2023-06-24T13:47:00;1.90;;;1.30;;
2940;SDS011;1480;51.456;6.670;2023-06-24T13:49:27;2.37;;;1.37;;
2940;SDS011;1480;51.456;6.670;2023-06-24T13:51:54;3.20;;;1.73;;
2940;SDS011;1480;51.456;6.670;2023-06-24T13:54:20;2.10;;;1.30;;
2940;SDS011;1480;51.456;6.670;2023-06-24T13:56:47;3.40;;;1.40;;
2940;SDS011;1480;51.456;6.670;2023-06-24T13:59:14;5.17;;;1.87;;
2940;SDS011;1480;51.456;6.670;2023-06-24T14:01:42;4.00;;;1.10;;
2940;SDS011;1480;51.456;6.670;2023-06-24T14:04:09;2.20;;;1.20;;
2940;SDS011;1480;51.456;6.670;2023-06-24T14:06:36;2.00;;;1.30;;
2940;SDS011;1480;51.456;6.670;2023-06-24T14:09:02;3.80;;;1.53;;
2940;SDS011;1480;51.456;6.670;2023-06-24T14:11:29;2.10;;;1.30;;
2940;SDS011;1480;51.456;6.670;2023-06-24T14:13:56;2.37;;;1.20;;
2940;SDS011;1480;51.456;6.670;2023-06-24T14:16:23;2.43;;;1.30;;
2940;SDS011;1480;51.456;6.670;2023-06-24T14:18:51;1.97;;;1.10;;
2940;SDS011;1480;51.456;6.670;2023-06-24T14:21:18;2.23;;;1.33;;
2940;SDS011;1480;51.456;6.670;2023-06-24T14:23:45;2.30;;;1.40;;
2940;SDS011;1480;51.456;6.670;2023-06-24T14:26:11;2.47;;;1.40;;
2940;SDS011;1480;51.456;6.670;2023-06-24T14:28:38;3.20;;;1.70;;
2940;SDS011;1480;51.456;6.670;2023-06-24T14:31:05;2.00;;;1.30;;
2940;SDS011;1480;51.456;6.670;2023-06-24T14:33:32;3.13;;;1.60;;
2940;SDS011;1480;51.456;6.670;2023-06-24T14:36:00;1.70;;;1.07;;
2940;SDS011;1480;51.456;6.670;2023-06-24T14:38:27;3.50;;;1.63;;
2940;SDS011;1480;51.456;6.670;2023-06-24T14:40:53;2.77;;;1.67;;
2940;SDS011;1480;51.456;6.670;2023-06-24T14:43:21;6.50;;;1.40;;
2940;SDS011;1480;51.456;6.670;2023-06-24T14:45:47;2.30;;;1.20;;
2940;SDS011;1480;51.456;6.670;2023-06-24T14:48:14;2.33;;;1.30;;
2940;SDS011;1480;51.456;6.670;2023-06-24T14:50:41;2.50;;;1.90;;
2940;SDS011;1480;51.456;6.670;2023-06-24T14:53:09;1.67;;;0.93;;
2940;SDS011;1480;51.456;6.670;2023-06-24T14:55:35;2.23;;;1.30;;
2940;SDS011;1480;51.456;6.670;2023-06-24T14:58:02;2.10;;;1.53;;
2940;SDS011;1480;51.456;6.670;2023-06-24T15:00:29;1.80;;;0.97;;
2940;SDS011;1480;51.456;6.670;2023-06-24T15:02:56;2.63;;;1.37;;
2940;SDS011;1480;51.456;6.670;2023-06-24T15:05:22;2.40;;;1.10;;
2940;SDS011;1480;51.456;6.670;2023-06-24T15:07:49;2.57;;;1.40;;
2940;SDS011;1480;51.456;6.670;2023-06-24T15:10:17;2.17;;;1.23;;
2940;SDS011;1480;51.456;6.670;2023-06-24T15:12:44;3.83;;;1.40;;
2940;SDS011;1480;51.456;6.670;2023-06-24T15:15:10;2.20;;;1.07;;
2940;SDS011;1480;51.456;6.670;2023-06-24T15:17:37;1.90;;;0.90;;
2940;SDS011;1480;51.456;6.670;2023-06-24T15:20:10;2.17;;;1.13;;
2940;SDS011;1480;51.456;6.670;2023-06-24T15:22:37;2.67;;;1.30;;
2940;SDS011;1480;51.456;6.670;2023-06-24T15:25:04;1.67;;;1.00;;
2940;SDS011;1480;51.456;6.670;2023-06-24T15:27:33;2.93;;;1.57;;